createdAt,value
2022-10-31T00:00:52.791Z,3.30
2022-10-31T00:03:21.429Z,3.33
2022-10-31T00:05:51.311Z,3.17
2022-10-31T00:08:20.052Z,3.00
2022-10-31T00:10:49.003Z,3.00
2022-10-31T00:13:17.854Z,3.10
2022-10-31T00:15:47.716Z,3.80
2022-10-31T00:18:16.299Z,3.53
2022-10-31T00:20:44.916Z,3.33
2022-10-31T00:23:14.058Z,3.10
2022-10-31T00:25:42.896Z,3.10
2022-10-31T00:28:12.611Z,3.20
2022-10-31T00:30:41.325Z,3.00
2022-10-31T00:33:11.308Z,3.13
2022-10-31T00:35:39.827Z,3.27
2022-10-31T00:38:08.251Z,3.43
2022-10-31T00:40:36.843Z,3.23
2022-10-31T00:43:05.491Z,3.20
2022-10-31T00:45:34.000Z,3.43
2022-10-31T00:48:02.832Z,3.17
2022-10-31T00:50:33.220Z,3.17
2022-10-31T00:53:01.650Z,2.83
2022-10-31T00:55:30.172Z,3.10
2022-10-31T00:57:59.142Z,3.30
2022-10-31T01:00:28.210Z,3.47
2022-10-31T01:02:57.199Z,3.00
2022-10-31T01:05:25.880Z,3.37
2022-10-31T01:07:55.694Z,3.30
2022-10-31T01:10:24.480Z,3.80
2022-10-31T01:12:53.164Z,3.07
2022-10-31T01:15:22.537Z,2.90
2022-10-31T01:17:51.632Z,3.77
2022-10-31T01:20:20.457Z,3.60
2022-10-31T01:22:48.904Z,3.63
2022-10-31T01:25:18.964Z,3.07
2022-10-31T01:27:47.570Z,3.23
2022-10-31T01:30:16.015Z,4.00
2022-10-31T01:32:44.671Z,3.53
2022-10-31T01:35:13.208Z,3.40
2022-10-31T01:37:41.643Z,3.30
2022-10-31T01:40:10.855Z,3.57
2022-10-31T01:42:40.756Z,3.10
2022-10-31T01:45:12.968Z,3.57
2022-10-31T01:47:43.962Z,4.13
2022-10-31T01:50:15.314Z,3.10
2022-10-31T01:52:45.841Z,3.80
2022-10-31T01:55:16.320Z,2.53
2022-10-31T01:57:48.120Z,2.83
2022-10-31T02:00:17.135Z,3.30
2022-10-31T02:02:46.765Z,3.23
2022-10-31T02:05:17.236Z,3.40
2022-10-31T02:07:48.607Z,3.33
2022-10-31T02:10:17.439Z,2.93
2022-10-31T02:12:47.749Z,3.00
2022-10-31T02:15:16.363Z,2.90
2022-10-31T02:17:45.004Z,3.17
2022-10-31T02:20:16.091Z,2.60
2022-10-31T02:22:51.990Z,3.30
2022-10-31T02:25:34.116Z,3.47
2022-10-31T02:28:09.414Z,5.33
2022-10-31T02:30:41.560Z,11.20
2022-10-31T02:33:16.916Z,11.00
2022-10-31T02:35:52.693Z,8.57
2022-10-31T02:38:28.789Z,8.67
2022-10-31T02:41:01.592Z,18.57
2022-10-31T02:43:32.167Z,4.73
2022-10-31T02:46:03.507Z,8.13
2022-10-31T02:48:36.326Z,7.97
2022-10-31T02:51:06.059Z,5.53
2022-10-31T02:53:35.882Z,3.67
2022-10-31T02:56:07.366Z,3.70
2022-10-31T02:58:37.548Z,3.40
2022-10-31T03:01:13.622Z,3.30
2022-10-31T03:03:47.841Z,3.70
2022-10-31T03:06:20.158Z,4.10
2022-10-31T03:08:53.189Z,3.90
2022-10-31T03:11:25.061Z,4.07
2022-10-31T03:13:55.847Z,3.53
2022-10-31T03:16:28.225Z,3.93
2022-10-31T03:19:00.909Z,3.30
2022-10-31T03:21:30.707Z,3.67
2022-10-31T03:23:59.672Z,3.43
2022-10-31T03:26:28.580Z,3.50
2022-10-31T03:28:57.760Z,3.03
2022-10-31T03:31:30.318Z,3.40
2022-10-31T03:34:01.489Z,3.50
2022-10-31T03:36:31.504Z,3.90
2022-10-31T03:39:01.767Z,3.70
2022-10-31T03:41:31.842Z,3.60
2022-10-31T03:44:02.762Z,3.43
2022-10-31T03:46:31.535Z,3.40
2022-10-31T03:49:01.907Z,3.90
2022-10-31T03:51:39.485Z,3.53
2022-10-31T03:54:11.931Z,4.10
2022-10-31T03:56:43.124Z,3.43
2022-10-31T03:59:14.131Z,3.50
2022-10-31T04:01:44.268Z,3.50
2022-10-31T04:04:14.405Z,3.50
2022-10-31T04:06:44.799Z,3.60
2022-10-31T04:09:13.328Z,3.93
2022-10-31T04:11:45.055Z,3.83
2022-10-31T04:14:14.403Z,3.57
2022-10-31T04:16:44.037Z,3.80
2022-10-31T04:19:14.166Z,3.90
2022-10-31T04:21:44.451Z,3.13
2022-10-31T04:24:12.993Z,2.90
2022-10-31T04:26:41.440Z,3.30
2022-10-31T04:29:10.318Z,3.23
2022-10-31T04:31:38.730Z,3.27
2022-10-31T04:34:08.342Z,3.17
2022-10-31T04:36:38.418Z,3.30
2022-10-31T04:39:08.272Z,3.40
2022-10-31T04:41:36.696Z,3.70
2022-10-31T04:44:05.333Z,3.67
2022-10-31T04:46:33.940Z,3.43
2022-10-31T04:49:02.416Z,3.30
2022-10-31T04:51:30.948Z,4.13
2022-10-31T04:54:00.962Z,3.63
2022-10-31T04:56:29.417Z,3.90
2022-10-31T04:58:57.999Z,3.80
2022-10-31T05:01:26.663Z,4.30
2022-10-31T05:03:55.206Z,4.07
2022-10-31T05:06:23.823Z,3.80
2022-10-31T05:08:53.363Z,4.30
2022-10-31T05:11:23.190Z,4.13
2022-10-31T05:13:51.736Z,4.57
2022-10-31T05:16:20.258Z,4.10
2022-10-31T05:18:48.693Z,4.13
2022-10-31T05:21:17.266Z,4.60
2022-10-31T05:23:48.449Z,4.27
2022-10-31T05:26:17.240Z,4.20
2022-10-31T05:28:47.207Z,4.63
2022-10-31T05:31:15.924Z,3.80
2022-10-31T05:33:44.332Z,4.20
2022-10-31T05:36:12.847Z,3.70
2022-10-31T05:38:41.377Z,4.17
2022-10-31T05:41:10.400Z,4.07
2022-10-31T05:43:39.279Z,4.33
2022-10-31T05:46:09.113Z,3.63
2022-10-31T05:48:37.651Z,3.53
2022-10-31T05:51:06.353Z,3.40
2022-10-31T05:53:34.797Z,3.53
2022-10-31T05:56:03.396Z,3.63
2022-10-31T05:58:32.014Z,3.53
2022-10-31T06:01:00.432Z,3.50
2022-10-31T06:03:30.397Z,3.20
2022-10-31T06:05:58.915Z,3.17
2022-10-31T06:08:27.351Z,3.70
2022-10-31T06:10:55.948Z,3.83
2022-10-31T06:13:24.583Z,3.30
2022-10-31T06:15:53.020Z,3.30
2022-10-31T06:18:21.560Z,3.33
2022-10-31T06:20:51.518Z,3.70
2022-10-31T06:23:19.951Z,3.47
2022-10-31T06:25:51.256Z,3.53
2022-10-31T06:28:20.189Z,3.47
2022-10-31T06:30:48.625Z,3.10
2022-10-31T06:33:17.046Z,3.37
2022-10-31T06:35:48.447Z,3.67
2022-10-31T06:38:18.244Z,3.20
2022-10-31T06:40:46.728Z,3.40
2022-10-31T06:43:15.993Z,3.93
2022-10-31T06:45:44.411Z,3.50
2022-10-31T06:48:17.675Z,3.07
2022-10-31T06:50:46.884Z,3.50
2022-10-31T06:53:15.508Z,3.10
2022-10-31T06:55:45.364Z,3.20
2022-10-31T06:58:14.250Z,3.30
2022-10-31T07:00:42.780Z,3.47
2022-10-31T07:03:12.998Z,3.90
2022-10-31T07:05:41.931Z,3.23
2022-10-31T07:08:11.568Z,3.17
2022-10-31T07:10:41.117Z,3.50
2022-10-31T07:13:14.142Z,3.70
2022-10-31T07:15:43.265Z,3.00
2022-10-31T07:18:12.424Z,3.90
2022-10-31T07:20:41.156Z,3.40
2022-10-31T07:23:10.595Z,3.33
2022-10-31T07:25:39.039Z,3.63
2022-10-31T07:28:07.646Z,3.00
2022-10-31T07:30:37.465Z,4.03
2022-10-31T07:33:08.274Z,3.07
2022-10-31T07:35:36.912Z,2.90
2022-10-31T07:38:11.948Z,3.23
2022-10-31T07:40:40.714Z,3.20
2022-10-31T07:43:14.064Z,2.90
2022-10-31T07:45:44.441Z,3.43
2022-10-31T07:48:12.928Z,3.83
2022-10-31T07:50:41.450Z,3.07
2022-10-31T07:53:10.907Z,3.20
2022-10-31T07:55:39.627Z,3.30
2022-10-31T07:58:08.812Z,3.17
2022-10-31T08:00:38.328Z,3.50
2022-10-31T08:03:08.728Z,3.43
2022-10-31T08:05:37.539Z,3.27
2022-10-31T08:08:06.574Z,3.60
2022-10-31T08:10:35.525Z,3.70
2022-10-31T08:13:05.290Z,3.67
2022-10-31T08:15:35.230Z,2.90
2022-10-31T08:18:05.064Z,3.07
2022-10-31T08:20:34.944Z,3.47
2022-10-31T08:23:04.321Z,3.30
2022-10-31T08:25:37.314Z,3.77
2022-10-31T08:28:07.874Z,3.00
2022-10-31T08:30:37.233Z,3.00
2022-10-31T08:33:06.857Z,3.00
2022-10-31T08:35:37.011Z,2.80
2022-10-31T08:38:05.749Z,3.20
2022-10-31T08:40:36.056Z,2.53
2022-10-31T08:43:05.514Z,2.50
2022-10-31T08:45:34.796Z,2.60
2022-10-31T08:48:04.464Z,2.40
2022-10-31T08:50:34.579Z,2.53
2022-10-31T08:53:06.095Z,2.30
2022-10-31T08:55:36.574Z,2.40
2022-10-31T08:58:05.409Z,2.00
2022-10-31T09:00:34.046Z,2.33
2022-10-31T09:03:03.416Z,2.30
2022-10-31T09:05:32.130Z,2.20
2022-10-31T09:08:01.367Z,1.97
2022-10-31T09:10:31.990Z,2.37
2022-10-31T09:13:00.506Z,2.43
2022-10-31T09:15:29.235Z,2.50
2022-10-31T09:17:58.168Z,2.30
2022-10-31T09:20:26.827Z,2.10
2022-10-31T09:22:58.976Z,2.07
2022-10-31T09:25:27.648Z,2.00
2022-10-31T09:28:00.139Z,1.90
2022-10-31T09:30:30.210Z,2.57
2022-10-31T09:32:58.748Z,2.47
2022-10-31T09:35:27.732Z,2.67
2022-10-31T09:37:59.988Z,2.00
2022-10-31T09:40:33.011Z,1.97
2022-10-31T09:43:05.719Z,2.20
2022-10-31T09:45:38.750Z,1.60
2022-10-31T09:48:21.999Z,1.90
2022-10-31T09:50:52.728Z,2.03
2022-10-31T09:53:26.419Z,2.30
2022-10-31T09:55:55.993Z,2.97
2022-10-31T09:58:28.134Z,1.70
2022-10-31T10:00:58.133Z,1.90
2022-10-31T10:03:31.613Z,1.87
2022-10-31T10:06:04.168Z,1.90
2022-10-31T10:08:33.931Z,1.83
2022-10-31T10:11:08.962Z,2.10
2022-10-31T10:13:44.457Z,1.70
2022-10-31T10:16:17.847Z,1.83
2022-10-31T10:18:51.295Z,2.33
2022-10-31T10:21:26.305Z,1.70
2022-10-31T10:23:59.979Z,1.80
2022-10-31T10:29:17.685Z,1.70
2022-10-31T10:31:48.272Z,2.10
2022-10-31T10:34:21.561Z,1.80
2022-10-31T10:36:52.021Z,1.47
2022-10-31T10:39:23.430Z,2.03
2022-10-31T10:42:10.384Z,2.17
2022-10-31T10:44:58.596Z,1.77
2022-10-31T10:47:39.452Z,1.90
2022-10-31T10:50:12.428Z,2.27
2022-10-31T10:53:00.311Z,2.20
2022-10-31T10:55:32.756Z,1.90
2022-10-31T10:58:03.779Z,1.67
2022-10-31T11:00:35.039Z,1.83
2022-10-31T11:03:04.195Z,2.20
2022-10-31T11:05:36.765Z,2.03
2022-10-31T11:08:05.632Z,2.40
2022-10-31T11:10:34.369Z,2.40
2022-10-31T11:13:07.996Z,1.77
2022-10-31T11:15:40.039Z,2.00
2022-10-31T11:18:08.577Z,1.93
2022-10-31T11:20:38.418Z,1.80
2022-10-31T11:23:08.288Z,1.70
2022-10-31T11:25:37.039Z,1.77
2022-10-31T11:28:06.536Z,1.80
2022-10-31T11:30:45.784Z,1.57
2022-10-31T11:33:19.373Z,2.20
2022-10-31T11:35:49.899Z,1.50
2022-10-31T11:38:22.186Z,1.50
2022-10-31T11:40:57.643Z,1.63
2022-10-31T11:43:26.694Z,1.73
2022-10-31T11:45:56.618Z,1.70
2022-10-31T11:48:26.371Z,2.07
2022-10-31T11:50:56.174Z,2.80
2022-10-31T11:53:27.509Z,2.10
2022-10-31T11:56:04.493Z,2.23
2022-10-31T11:58:33.363Z,1.80
2022-10-31T12:01:03.188Z,1.90
2022-10-31T12:03:46.964Z,2.43
2022-10-31T12:06:18.963Z,2.30
2022-10-31T12:08:47.701Z,1.83
2022-10-31T12:11:22.965Z,1.50
2022-10-31T12:14:01.271Z,1.80
2022-10-31T12:16:37.188Z,1.60
2022-10-31T12:19:07.929Z,1.90
2022-10-31T12:21:57.273Z,1.63
2022-10-31T12:24:46.669Z,1.67
2022-10-31T12:27:20.427Z,1.37
2022-10-31T12:30:14.431Z,1.60
2022-10-31T12:32:51.623Z,1.13
2022-10-31T12:35:35.145Z,1.57
2022-10-31T12:38:08.716Z,1.97
2022-10-31T12:40:46.561Z,1.60
2022-10-31T12:43:23.848Z,1.63
2022-10-31T12:45:55.702Z,1.50
2022-10-31T12:48:55.462Z,1.77
2022-10-31T12:51:34.150Z,1.63
2022-10-31T12:54:08.990Z,1.53
2022-10-31T12:56:42.647Z,1.50
2022-10-31T12:59:13.870Z,1.10
2022-10-31T13:01:44.444Z,1.60
2022-10-31T13:04:15.305Z,1.50
2022-10-31T13:06:46.327Z,1.57
2022-10-31T13:09:18.303Z,1.70
2022-10-31T13:11:48.302Z,1.50
2022-10-31T13:14:21.364Z,1.50
2022-10-31T13:16:50.891Z,1.63
2022-10-31T13:19:20.196Z,1.70
2022-10-31T13:21:57.108Z,1.77
2022-10-31T13:24:28.624Z,1.57
2022-10-31T13:26:57.837Z,1.57
2022-10-31T13:29:31.751Z,1.70
2022-10-31T13:32:02.437Z,1.90
2022-10-31T13:34:33.056Z,1.70
2022-10-31T13:37:07.301Z,1.60
2022-10-31T13:39:50.743Z,1.90
2022-10-31T13:42:22.417Z,1.63
2022-10-31T13:44:50.922Z,1.50
2022-10-31T13:47:27.003Z,1.50
2022-10-31T13:50:06.196Z,1.60
2022-10-31T13:52:36.131Z,1.57
2022-10-31T13:55:04.741Z,1.60
2022-10-31T13:57:34.950Z,1.80
2022-10-31T14:00:05.475Z,1.40
2022-10-31T14:02:34.715Z,1.80
2022-10-31T14:05:04.475Z,1.50
2022-10-31T14:07:33.507Z,1.60
2022-10-31T14:10:04.787Z,1.40
2022-10-31T14:12:34.571Z,1.87
2022-10-31T14:15:06.508Z,2.07
2022-10-31T14:17:39.651Z,1.50
2022-10-31T14:20:26.474Z,1.60
2022-10-31T14:22:55.498Z,1.60
2022-10-31T14:25:35.756Z,1.50
2022-10-31T14:28:05.689Z,1.40
2022-10-31T14:30:34.323Z,1.90
2022-10-31T14:33:04.051Z,1.60
2022-10-31T14:35:40.404Z,1.53
2022-10-31T14:38:19.104Z,1.57
2022-10-31T14:40:55.206Z,1.97
2022-10-31T14:43:38.452Z,1.70
2022-10-31T14:46:09.735Z,2.00
2022-10-31T14:48:44.863Z,1.70
2022-10-31T14:51:15.265Z,1.67
2022-10-31T14:53:48.668Z,1.30
2022-10-31T14:56:22.201Z,2.10
2022-10-31T14:58:51.004Z,2.13
2022-10-31T15:01:24.180Z,2.10
2022-10-31T15:04:18.125Z,1.87
2022-10-31T15:06:43.803Z,1.83
2022-10-31T15:09:24.053Z,1.90
2022-10-31T15:11:54.024Z,1.87
2022-10-31T15:14:26.952Z,2.40
2022-10-31T15:16:55.577Z,1.77
2022-10-31T15:19:25.814Z,1.70
2022-10-31T15:21:55.317Z,2.20
2022-10-31T15:24:27.608Z,2.07
2022-10-31T15:27:02.287Z,2.00
2022-10-31T15:29:33.363Z,1.90
2022-10-31T15:32:03.073Z,2.50
2022-10-31T15:34:35.903Z,2.13
2022-10-31T15:37:04.530Z,2.00
2022-10-31T15:39:33.166Z,1.90
2022-10-31T15:42:03.212Z,2.03
2022-10-31T15:44:32.815Z,2.17
2022-10-31T15:47:02.442Z,2.30
2022-10-31T15:49:36.839Z,2.70
2022-10-31T15:52:06.972Z,3.00
2022-10-31T15:54:35.864Z,2.10
2022-10-31T15:57:06.860Z,2.30
2022-10-31T15:59:35.372Z,2.60
2022-10-31T16:02:05.889Z,2.90
2022-10-31T16:04:34.620Z,2.23
2022-10-31T16:07:03.883Z,2.30
2022-10-31T16:09:32.495Z,2.77
2022-10-31T16:12:01.297Z,2.23
2022-10-31T16:14:31.875Z,2.40
2022-10-31T16:17:01.310Z,2.50
2022-10-31T16:19:31.384Z,2.97
2022-10-31T16:22:05.116Z,2.00
2022-10-31T16:24:34.776Z,2.70
2022-10-31T16:27:06.011Z,3.40
2022-10-31T16:29:40.984Z,2.57
2022-10-31T16:32:24.250Z,2.77
2022-10-31T16:34:59.987Z,2.50
2022-10-31T16:37:28.559Z,2.23
2022-10-31T16:39:57.188Z,2.23
2022-10-31T16:42:26.087Z,2.10
2022-10-31T16:44:55.917Z,2.60
2022-10-31T16:47:26.144Z,2.27
2022-10-31T16:50:01.104Z,2.60
2022-10-31T16:52:38.075Z,2.30
2022-10-31T16:55:14.214Z,2.23
2022-10-31T16:57:44.020Z,2.73
2022-10-31T17:00:17.334Z,2.53
2022-10-31T17:02:46.291Z,3.03
2022-10-31T17:05:15.561Z,2.87
2022-10-31T17:07:44.598Z,2.80
2022-10-31T17:10:14.288Z,2.27
2022-10-31T17:12:44.293Z,2.63
2022-10-31T17:15:17.815Z,2.50
2022-10-31T17:17:47.964Z,2.10
2022-10-31T17:20:23.896Z,2.50
2022-10-31T17:22:52.557Z,2.83
2022-10-31T17:25:22.720Z,3.60
2022-10-31T17:27:51.386Z,2.67
2022-10-31T17:30:20.465Z,3.10
2022-10-31T17:32:50.853Z,2.13
2022-10-31T17:35:19.858Z,2.57
2022-10-31T17:37:48.501Z,3.37
2022-10-31T17:40:17.928Z,3.57
2022-10-31T17:42:50.872Z,2.87
2022-10-31T17:45:19.719Z,2.53
2022-10-31T17:47:50.311Z,2.60
2022-10-31T17:50:19.211Z,2.83
2022-10-31T17:52:47.668Z,2.97
2022-10-31T17:55:16.236Z,3.73
2022-10-31T17:57:45.257Z,2.50
2022-10-31T18:00:14.564Z,2.87
2022-10-31T18:02:43.144Z,2.23
2022-10-31T18:05:13.399Z,2.63
2022-10-31T18:07:41.969Z,2.67
2022-10-31T18:10:10.924Z,3.07
2022-10-31T18:12:39.760Z,2.63
2022-10-31T18:15:08.686Z,2.57
2022-10-31T18:17:39.535Z,3.03
2022-10-31T18:20:11.283Z,3.67
2022-10-31T18:22:41.124Z,2.97
2022-10-31T18:25:09.856Z,3.27
2022-10-31T18:27:38.863Z,2.83
2022-10-31T18:30:08.181Z,2.43
2022-10-31T18:32:37.217Z,1.97
2022-10-31T18:35:05.996Z,2.50
2022-10-31T18:37:34.447Z,2.90
2022-10-31T18:40:04.556Z,2.50
2022-10-31T18:42:33.613Z,3.07
2022-10-31T18:45:11.524Z,2.97
2022-10-31T18:47:45.872Z,3.27
2022-10-31T18:50:14.285Z,3.07
2022-10-31T18:52:42.709Z,3.00
2022-10-31T18:55:12.860Z,3.70
2022-10-31T18:57:41.293Z,2.90
2022-10-31T19:00:10.256Z,2.80
2022-10-31T19:02:38.920Z,3.10
2022-10-31T19:05:07.442Z,3.00
2022-10-31T19:07:35.893Z,3.10
2022-10-31T19:10:04.785Z,3.33
2022-10-31T19:12:34.851Z,2.77
2022-10-31T19:15:03.356Z,2.60
2022-10-31T19:17:32.004Z,2.70
2022-10-31T19:20:01.108Z,3.47
2022-10-31T19:22:32.426Z,2.83
2022-10-31T19:25:03.027Z,2.73
2022-10-31T19:27:36.054Z,2.83
2022-10-31T19:30:04.606Z,2.73
2022-10-31T19:32:33.104Z,2.40
2022-10-31T19:35:01.703Z,2.67
2022-10-31T19:37:30.320Z,3.10
2022-10-31T19:39:58.736Z,2.30
2022-10-31T19:42:27.352Z,3.30
2022-10-31T19:44:57.496Z,2.67
2022-10-31T19:47:26.118Z,2.40
2022-10-31T19:49:54.668Z,3.13
2022-10-31T19:52:23.203Z,2.47
2022-10-31T19:54:51.644Z,2.60
2022-10-31T19:57:30.771Z,2.80
2022-10-31T20:00:10.959Z,2.47
2022-10-31T20:02:39.446Z,2.43
2022-10-31T20:05:08.274Z,2.43
2022-10-31T20:07:37.167Z,2.67
2022-10-31T20:10:05.865Z,2.30
2022-10-31T20:12:35.094Z,2.70
2022-10-31T20:15:03.860Z,2.27
2022-10-31T20:17:33.763Z,2.40
2022-10-31T20:20:07.152Z,2.07
2022-10-31T20:22:35.960Z,2.40
2022-10-31T20:25:04.637Z,2.40
2022-10-31T20:27:33.065Z,2.40
2022-10-31T20:30:02.054Z,2.80
2022-10-31T20:32:30.491Z,2.37
2022-10-31T20:35:00.326Z,2.20
2022-10-31T20:37:29.094Z,2.90
2022-10-31T20:39:57.512Z,2.50
2022-10-31T20:42:25.956Z,2.97
2022-10-31T20:44:54.700Z,2.43
2022-10-31T20:47:25.705Z,2.60
2022-10-31T20:49:54.536Z,2.30
2022-10-31T20:52:24.640Z,1.93
2022-10-31T20:54:53.060Z,2.03
2022-10-31T20:57:21.471Z,1.93
2022-10-31T20:59:50.145Z,2.13
2022-10-31T21:02:18.659Z,2.10
2022-10-31T21:04:47.210Z,1.77
2022-10-31T21:07:15.897Z,2.00
2022-10-31T21:09:45.807Z,2.10
2022-10-31T21:12:14.248Z,1.80
2022-10-31T21:14:42.897Z,2.60
2022-10-31T21:17:11.407Z,2.53
2022-10-31T21:19:39.856Z,2.40
2022-10-31T21:22:08.423Z,2.50
2022-10-31T21:24:36.983Z,2.50
2022-10-31T21:27:09.947Z,2.30
2022-10-31T21:29:41.140Z,2.20
2022-10-31T21:32:09.588Z,2.30
2022-10-31T21:34:38.009Z,3.10
2022-10-31T21:37:06.843Z,2.23
2022-10-31T21:39:35.291Z,1.80
2022-10-31T21:42:03.964Z,2.37
2022-10-31T21:44:33.905Z,2.37
2022-10-31T21:47:02.325Z,2.23
2022-10-31T21:49:30.752Z,2.80
2022-10-31T21:51:59.472Z,2.20
2022-10-31T21:54:30.242Z,2.43
2022-10-31T21:56:59.595Z,2.00
2022-10-31T21:59:28.514Z,2.60
2022-10-31T22:02:00.791Z,2.10
2022-10-31T22:04:30.048Z,2.17
2022-10-31T22:06:58.587Z,2.60
2022-10-31T22:09:26.999Z,2.10
2022-10-31T22:11:55.728Z,2.30
2022-10-31T22:14:24.164Z,2.47
2022-10-31T22:16:52.604Z,2.07
2022-10-31T22:19:22.575Z,2.93
2022-10-31T22:21:51.010Z,2.50
2022-10-31T22:24:19.993Z,2.23
2022-10-31T22:26:48.735Z,2.20
2022-10-31T22:29:18.113Z,2.70
2022-10-31T22:31:49.382Z,2.43
2022-10-31T22:34:22.150Z,3.10
2022-10-31T22:36:50.576Z,2.67
2022-10-31T22:39:19.021Z,1.87
2022-10-31T22:41:47.740Z,1.70
2022-10-31T22:44:16.173Z,2.70
2022-10-31T22:46:44.603Z,1.87
2022-10-31T22:49:15.197Z,3.10
2022-10-31T22:51:45.938Z,2.53
2022-10-31T22:54:15.776Z,2.40
2022-10-31T22:56:44.436Z,2.03
2022-10-31T22:59:13.577Z,2.47
2022-10-31T23:01:42.511Z,1.90
2022-10-31T23:06:46.028Z,2.00
2022-10-31T23:09:15.778Z,2.47
2022-10-31T23:11:44.446Z,2.47
2022-10-31T23:14:14.271Z,2.07
2022-10-31T23:16:44.411Z,2.20
2022-10-31T23:19:14.360Z,2.33
2022-10-31T23:21:56.498Z,2.53
2022-10-31T23:24:28.431Z,2.40
2022-10-31T23:27:05.752Z,2.10
2022-10-31T23:29:34.746Z,2.20
2022-10-31T23:32:03.331Z,2.23
2022-10-31T23:34:31.761Z,2.10
2022-10-31T23:37:00.427Z,2.23
2022-10-31T23:39:30.477Z,2.67
2022-10-31T23:41:58.941Z,1.83
2022-10-31T23:44:27.549Z,1.93
2022-10-31T23:46:56.050Z,2.20
2022-10-31T23:49:25.502Z,2.10
2022-10-31T23:51:56.602Z,2.03
2022-10-31T23:54:25.201Z,2.23
2022-10-31T23:56:55.250Z,1.93
2022-10-31T23:59:24.103Z,2.00
